sensor_id;sensor_type;location;lat;lon;timestamp;P1;durP1;ratioP1;P2;durP2;ratioP2
10491;SDS011;5293;51.464;-2.566;2023-03-11T00:00:33;27.13;;;15.30;;
10491;SDS011;5293;51.464;-2.566;2023-03-11T00:03:00;23.43;;;15.07;;
10491;SDS011;5293;51.464;-2.566;2023-03-11T00:05:31;26.43;;;16.17;;
10491;SDS011;5293;51.464;-2.566;2023-03-11T00:07:59;27.63;;;16.77;;
10491;SDS011;5293;51.464;-2.566;2023-03-11T00:10:27;24.07;;;14.80;;
10491;SDS011;5293;51.464;-2.566;2023-03-11T00:12:56;31.90;;;16.43;;
10491;SDS011;5293;51.464;-2.566;2023-03-11T00:15:22;30.73;;;17.43;;
10491;SDS011;5293;51.464;-2.566;2023-03-11T00:17:48;43.03;;;21.60;;
10491;SDS011;5293;51.464;-2.566;2023-03-11T00:20:18;46.17;;;20.77;;
10491;SDS011;5293;51.464;-2.566;2023-03-11T00:22:47;45.37;;;21.83;;
10491;SDS011;5293;51.464;-2.566;2023-03-11T00:25:14;32.47;;;17.60;;
10491;SDS011;5293;51.464;-2.566;2023-03-11T00:27:41;31.67;;;17.37;;
10491;SDS011;5293;51.464;-2.566;2023-03-11T00:30:07;29.20;;;16.77;;
10491;SDS011;5293;51.464;-2.566;2023-03-11T00:32:34;25.17;;;15.03;;
10491;SDS011;5293;51.464;-2.566;2023-03-11T00:34:59;26.57;;;14.90;;
10491;SDS011;5293;51.464;-2.566;2023-03-11T00:37:25;22.67;;;14.20;;
10491;SDS011;5293;51.464;-2.566;2023-03-11T00:39:51;22.70;;;13.53;;
10491;SDS011;5293;51.464;-2.566;2023-03-11T00:42:16;23.50;;;13.67;;
10491;SDS011;5293;51.464;-2.566;2023-03-11T00:44:42;23.00;;;13.97;;
10491;SDS011;5293;51.464;-2.566;2023-03-11T00:47:09;23.10;;;13.63;;
10491;SDS011;5293;51.464;-2.566;2023-03-11T00:49:35;20.97;;;13.43;;
10491;SDS011;5293;51.464;-2.566;2023-03-11T00:52:01;21.00;;;12.97;;
10491;SDS011;5293;51.464;-2.566;2023-03-11T00:54:27;23.97;;;14.20;;
10491;SDS011;5293;51.464;-2.566;2023-03-11T00:56:52;18.07;;;12.67;;
10491;SDS011;5293;51.464;-2.566;2023-03-11T00:59:18;23.57;;;12.93;;
10491;SDS011;5293;51.464;-2.566;2023-03-11T01:01:44;20.40;;;12.40;;
10491;SDS011;5293;51.464;-2.566;2023-03-11T01:04:09;21.60;;;12.43;;
10491;SDS011;5293;51.464;-2.566;2023-03-11T01:06:35;22.27;;;12.57;;
10491;SDS011;5293;51.464;-2.566;2023-03-11T01:09:00;23.23;;;12.00;;
10491;SDS011;5293;51.464;-2.566;2023-03-11T01:11:26;22.03;;;13.20;;
10491;SDS011;5293;51.464;-2.566;2023-03-11T01:13:52;19.40;;;12.63;;
10491;SDS011;5293;51.464;-2.566;2023-03-11T01:16:17;19.73;;;12.40;;
10491;SDS011;5293;51.464;-2.566;2023-03-11T01:18:45;20.10;;;12.47;;
10491;SDS011;5293;51.464;-2.566;2023-03-11T01:21:11;22.70;;;12.80;;
10491;SDS011;5293;51.464;-2.566;2023-03-11T01:23:37;19.07;;;12.47;;
10491;SDS011;5293;51.464;-2.566;2023-03-11T01:26:03;21.43;;;12.70;;
10491;SDS011;5293;51.464;-2.566;2023-03-11T01:28:29;18.97;;;12.93;;
10491;SDS011;5293;51.464;-2.566;2023-03-11T01:30:54;17.93;;;11.57;;
10491;SDS011;5293;51.464;-2.566;2023-03-11T01:33:20;15.83;;;10.63;;
10491;SDS011;5293;51.464;-2.566;2023-03-11T01:35:46;14.63;;;10.03;;
10491;SDS011;5293;51.464;-2.566;2023-03-11T01:38:13;16.37;;;10.03;;
10491;SDS011;5293;51.464;-2.566;2023-03-11T01:40:41;14.83;;;10.60;;
10491;SDS011;5293;51.464;-2.566;2023-03-11T01:48:46;11.33;;;9.03;;
10491;SDS011;5293;51.464;-2.566;2023-03-11T01:51:14;13.93;;;10.03;;
10491;SDS011;5293;51.464;-2.566;2023-03-11T01:53:43;12.53;;;9.20;;
10491;SDS011;5293;51.464;-2.566;2023-03-11T01:56:09;16.10;;;10.23;;
10491;SDS011;5293;51.464;-2.566;2023-03-11T01:58:36;14.47;;;9.57;;
10491;SDS011;5293;51.464;-2.566;2023-03-11T02:01:05;16.40;;;9.70;;
10491;SDS011;5293;51.464;-2.566;2023-03-11T02:03:32;13.03;;;9.73;;
10491;SDS011;5293;51.464;-2.566;2023-03-11T02:06:02;16.53;;;11.33;;
10491;SDS011;5293;51.464;-2.566;2023-03-11T02:08:30;17.40;;;11.03;;
10491;SDS011;5293;51.464;-2.566;2023-03-11T02:11:01;18.03;;;11.23;;
10491;SDS011;5293;51.464;-2.566;2023-03-11T02:13:28;21.17;;;11.83;;
10491;SDS011;5293;51.464;-2.566;2023-03-11T02:15:57;19.80;;;12.60;;
10491;SDS011;5293;51.464;-2.566;2023-03-11T02:18:24;21.73;;;13.23;;
10491;SDS011;5293;51.464;-2.566;2023-03-11T02:20:56;20.20;;;12.43;;
10491;SDS011;5293;51.464;-2.566;2023-03-11T02:23:33;18.30;;;12.70;;
10491;SDS011;5293;51.464;-2.566;2023-03-11T02:26:16;19.20;;;12.63;;
10491;SDS011;5293;51.464;-2.566;2023-03-11T02:28:47;20.60;;;12.70;;
10491;SDS011;5293;51.464;-2.566;2023-03-11T02:31:14;21.13;;;12.67;;
10491;SDS011;5293;51.464;-2.566;2023-03-11T02:33:40;19.73;;;12.70;;
10491;SDS011;5293;51.464;-2.566;2023-03-11T02:36:28;21.43;;;12.90;;
10491;SDS011;5293;51.464;-2.566;2023-03-11T02:38:55;22.93;;;12.33;;
10491;SDS011;5293;51.464;-2.566;2023-03-11T02:41:21;21.13;;;12.73;;
10491;SDS011;5293;51.464;-2.566;2023-03-11T02:43:47;17.23;;;11.23;;
10491;SDS011;5293;51.464;-2.566;2023-03-11T02:46:13;19.17;;;11.83;;
10491;SDS011;5293;51.464;-2.566;2023-03-11T02:48:39;20.27;;;11.77;;
10491;SDS011;5293;51.464;-2.566;2023-03-11T02:51:06;17.07;;;11.57;;
10491;SDS011;5293;51.464;-2.566;2023-03-11T02:53:33;15.83;;;10.43;;
10491;SDS011;5293;51.464;-2.566;2023-03-11T02:56:03;19.57;;;11.80;;
10491;SDS011;5293;51.464;-2.566;2023-03-11T02:58:28;19.80;;;11.87;;
10491;SDS011;5293;51.464;-2.566;2023-03-11T03:00:54;19.73;;;12.60;;
10491;SDS011;5293;51.464;-2.566;2023-03-11T03:03:20;21.27;;;12.23;;
10491;SDS011;5293;51.464;-2.566;2023-03-11T03:05:45;19.43;;;12.17;;
10491;SDS011;5293;51.464;-2.566;2023-03-11T03:08:11;20.60;;;12.17;;
10491;SDS011;5293;51.464;-2.566;2023-03-11T03:10:37;16.70;;;10.93;;
10491;SDS011;5293;51.464;-2.566;2023-03-11T03:13:03;17.37;;;11.20;;
10491;SDS011;5293;51.464;-2.566;2023-03-11T03:15:29;20.53;;;10.90;;
10491;SDS011;5293;51.464;-2.566;2023-03-11T03:17:54;15.60;;;10.10;;
10491;SDS011;5293;51.464;-2.566;2023-03-11T03:20:20;14.53;;;11.07;;
10491;SDS011;5293;51.464;-2.566;2023-03-11T03:22:46;14.47;;;10.13;;
10491;SDS011;5293;51.464;-2.566;2023-03-11T03:25:12;16.10;;;10.77;;
10491;SDS011;5293;51.464;-2.566;2023-03-11T03:27:38;20.33;;;11.10;;
10491;SDS011;5293;51.464;-2.566;2023-03-11T03:30:05;18.37;;;11.73;;
10491;SDS011;5293;51.464;-2.566;2023-03-11T03:32:31;21.07;;;11.43;;
10491;SDS011;5293;51.464;-2.566;2023-03-11T03:34:57;22.40;;;12.93;;
10491;SDS011;5293;51.464;-2.566;2023-03-11T03:37:26;19.17;;;11.77;;
10491;SDS011;5293;51.464;-2.566;2023-03-11T03:39:53;19.93;;;12.53;;
10491;SDS011;5293;51.464;-2.566;2023-03-11T03:42:19;19.43;;;11.77;;
10491;SDS011;5293;51.464;-2.566;2023-03-11T03:44:45;14.97;;;10.80;;
10491;SDS011;5293;51.464;-2.566;2023-03-11T03:47:11;14.10;;;10.63;;
10491;SDS011;5293;51.464;-2.566;2023-03-11T03:49:37;15.90;;;10.60;;
10491;SDS011;5293;51.464;-2.566;2023-03-11T03:52:06;17.57;;;10.30;;
10491;SDS011;5293;51.464;-2.566;2023-03-11T03:54:32;13.27;;;10.33;;
10491;SDS011;5293;51.464;-2.566;2023-03-11T03:56:58;12.93;;;10.10;;
10491;SDS011;5293;51.464;-2.566;2023-03-11T03:59:24;14.70;;;10.53;;
10491;SDS011;5293;51.464;-2.566;2023-03-11T04:01:49;13.90;;;10.13;;
10491;SDS011;5293;51.464;-2.566;2023-03-11T04:04:15;15.07;;;10.60;;
10491;SDS011;5293;51.464;-2.566;2023-03-11T04:06:41;14.53;;;10.03;;
10491;SDS011;5293;51.464;-2.566;2023-03-11T04:09:08;13.37;;;9.87;;
10491;SDS011;5293;51.464;-2.566;2023-03-11T04:11:35;12.47;;;9.67;;
10491;SDS011;5293;51.464;-2.566;2023-03-11T04:14:01;11.97;;;9.83;;
10491;SDS011;5293;51.464;-2.566;2023-03-11T04:16:27;13.37;;;8.67;;
10491;SDS011;5293;51.464;-2.566;2023-03-11T04:18:53;13.90;;;8.90;;
10491;SDS011;5293;51.464;-2.566;2023-03-11T04:21:19;15.67;;;10.27;;
10491;SDS011;5293;51.464;-2.566;2023-03-11T04:23:44;15.23;;;8.87;;
10491;SDS011;5293;51.464;-2.566;2023-03-11T04:26:10;14.60;;;8.93;;
10491;SDS011;5293;51.464;-2.566;2023-03-11T04:28:36;16.13;;;9.50;;
10491;SDS011;5293;51.464;-2.566;2023-03-11T04:31:02;13.10;;;8.73;;
10491;SDS011;5293;51.464;-2.566;2023-03-11T04:33:28;13.37;;;9.27;;
10491;SDS011;5293;51.464;-2.566;2023-03-11T04:35:54;14.13;;;9.50;;
10491;SDS011;5293;51.464;-2.566;2023-03-11T04:38:19;12.80;;;9.10;;
10491;SDS011;5293;51.464;-2.566;2023-03-11T04:40:45;13.17;;;8.97;;
10491;SDS011;5293;51.464;-2.566;2023-03-11T04:43:11;14.03;;;9.03;;
10491;SDS011;5293;51.464;-2.566;2023-03-11T04:45:37;12.03;;;8.83;;
10491;SDS011;5293;51.464;-2.566;2023-03-11T04:48:04;14.60;;;9.33;;
10491;SDS011;5293;51.464;-2.566;2023-03-11T04:50:29;10.43;;;8.13;;
10491;SDS011;5293;51.464;-2.566;2023-03-11T04:52:55;11.20;;;7.53;;
10491;SDS011;5293;51.464;-2.566;2023-03-11T04:55:21;8.70;;;6.67;;
10491;SDS011;5293;51.464;-2.566;2023-03-11T04:57:47;8.43;;;6.23;;
10491;SDS011;5293;51.464;-2.566;2023-03-11T05:00:13;7.03;;;5.60;;
10491;SDS011;5293;51.464;-2.566;2023-03-11T05:02:39;8.37;;;4.77;;
10491;SDS011;5293;51.464;-2.566;2023-03-11T05:05:06;9.17;;;4.80;;
10491;SDS011;5293;51.464;-2.566;2023-03-11T05:07:34;6.10;;;4.70;;
10491;SDS011;5293;51.464;-2.566;2023-03-11T05:10:00;6.87;;;4.43;;
10491;SDS011;5293;51.464;-2.566;2023-03-11T05:12:27;8.03;;;4.60;;
10491;SDS011;5293;51.464;-2.566;2023-03-11T05:14:53;5.23;;;4.10;;
10491;SDS011;5293;51.464;-2.566;2023-03-11T05:17:18;6.93;;;4.10;;
10491;SDS011;5293;51.464;-2.566;2023-03-11T05:19:44;7.50;;;3.50;;
10491;SDS011;5293;51.464;-2.566;2023-03-11T05:22:10;4.70;;;3.23;;
10491;SDS011;5293;51.464;-2.566;2023-03-11T05:24:36;8.80;;;4.37;;
10491;SDS011;5293;51.464;-2.566;2023-03-11T05:27:02;7.33;;;3.47;;
10491;SDS011;5293;51.464;-2.566;2023-03-11T05:29:28;4.83;;;3.30;;
10491;SDS011;5293;51.464;-2.566;2023-03-11T05:31:54;4.13;;;3.37;;
10491;SDS011;5293;51.464;-2.566;2023-03-11T05:34:20;5.80;;;3.13;;
10491;SDS011;5293;51.464;-2.566;2023-03-11T05:36:46;5.10;;;3.30;;
10491;SDS011;5293;51.464;-2.566;2023-03-11T05:39:11;4.87;;;3.17;;
10491;SDS011;5293;51.464;-2.566;2023-03-11T05:41:37;6.17;;;3.13;;
10491;SDS011;5293;51.464;-2.566;2023-03-11T05:44:04;5.17;;;2.90;;
10491;SDS011;5293;51.464;-2.566;2023-03-11T05:46:30;2.97;;;2.67;;
10491;SDS011;5293;51.464;-2.566;2023-03-11T05:48:57;5.73;;;3.03;;
10491;SDS011;5293;51.464;-2.566;2023-03-11T05:51:24;7.87;;;3.23;;
10491;SDS011;5293;51.464;-2.566;2023-03-11T05:53:49;8.07;;;2.90;;
10491;SDS011;5293;51.464;-2.566;2023-03-11T05:56:16;5.70;;;3.20;;
10491;SDS011;5293;51.464;-2.566;2023-03-11T05:58:43;7.40;;;2.83;;
10491;SDS011;5293;51.464;-2.566;2023-03-11T06:01:10;7.53;;;3.97;;
10491;SDS011;5293;51.464;-2.566;2023-03-11T06:03:37;4.93;;;2.87;;
10491;SDS011;5293;51.464;-2.566;2023-03-11T06:06:04;5.57;;;2.67;;
10491;SDS011;5293;51.464;-2.566;2023-03-11T06:08:31;10.43;;;3.33;;
10491;SDS011;5293;51.464;-2.566;2023-03-11T06:11:00;5.60;;;3.57;;
10491;SDS011;5293;51.464;-2.566;2023-03-11T06:13:31;8.63;;;3.90;;
10491;SDS011;5293;51.464;-2.566;2023-03-11T06:15:56;5.63;;;3.40;;
10491;SDS011;5293;51.464;-2.566;2023-03-11T06:18:22;9.23;;;3.37;;
10491;SDS011;5293;51.464;-2.566;2023-03-11T06:20:50;4.50;;;3.00;;
10491;SDS011;5293;51.464;-2.566;2023-03-11T06:23:16;4.20;;;2.90;;
10491;SDS011;5293;51.464;-2.566;2023-03-11T06:25:42;7.20;;;3.00;;
10491;SDS011;5293;51.464;-2.566;2023-03-11T06:28:08;6.67;;;3.67;;
10491;SDS011;5293;51.464;-2.566;2023-03-11T06:30:34;5.03;;;2.83;;
10491;SDS011;5293;51.464;-2.566;2023-03-11T06:32:59;4.70;;;2.70;;
10491;SDS011;5293;51.464;-2.566;2023-03-11T06:35:25;4.53;;;3.10;;
10491;SDS011;5293;51.464;-2.566;2023-03-11T06:37:51;5.40;;;3.03;;
10491;SDS011;5293;51.464;-2.566;2023-03-11T06:40:16;6.50;;;3.63;;
10491;SDS011;5293;51.464;-2.566;2023-03-11T06:42:44;6.80;;;4.03;;
10491;SDS011;5293;51.464;-2.566;2023-03-11T06:45:11;7.30;;;4.43;;
10491;SDS011;5293;51.464;-2.566;2023-03-11T06:47:37;7.60;;;4.13;;
10491;SDS011;5293;51.464;-2.566;2023-03-11T06:50:03;11.67;;;5.27;;
10491;SDS011;5293;51.464;-2.566;2023-03-11T06:52:31;6.97;;;4.40;;
10491;SDS011;5293;51.464;-2.566;2023-03-11T06:54:57;7.13;;;4.33;;
10491;SDS011;5293;51.464;-2.566;2023-03-11T06:57:22;10.40;;;4.13;;
10491;SDS011;5293;51.464;-2.566;2023-03-11T06:59:48;6.20;;;3.70;;
10491;SDS011;5293;51.464;-2.566;2023-03-11T07:02:14;4.33;;;3.00;;
10491;SDS011;5293;51.464;-2.566;2023-03-11T07:04:40;7.53;;;3.37;;
10491;SDS011;5293;51.464;-2.566;2023-03-11T07:07:06;4.33;;;2.73;;
10491;SDS011;5293;51.464;-2.566;2023-03-11T07:09:31;5.67;;;3.10;;
10491;SDS011;5293;51.464;-2.566;2023-03-11T07:11:57;6.27;;;3.27;;
10491;SDS011;5293;51.464;-2.566;2023-03-11T07:14:23;5.70;;;3.20;;
10491;SDS011;5293;51.464;-2.566;2023-03-11T07:16:48;3.80;;;3.00;;
10491;SDS011;5293;51.464;-2.566;2023-03-11T07:19:14;4.73;;;2.73;;
10491;SDS011;5293;51.464;-2.566;2023-03-11T07:21:40;5.77;;;3.53;;
10491;SDS011;5293;51.464;-2.566;2023-03-11T07:24:06;3.00;;;2.40;;
10491;SDS011;5293;51.464;-2.566;2023-03-11T07:26:33;7.50;;;3.20;;
10491;SDS011;5293;51.464;-2.566;2023-03-11T07:29:00;5.40;;;2.80;;
10491;SDS011;5293;51.464;-2.566;2023-03-11T07:31:27;3.63;;;3.03;;
10491;SDS011;5293;51.464;-2.566;2023-03-11T07:33:56;6.90;;;3.47;;
10491;SDS011;5293;51.464;-2.566;2023-03-11T07:36:26;6.07;;;3.17;;
10491;SDS011;5293;51.464;-2.566;2023-03-11T07:38:59;7.70;;;3.80;;
10491;SDS011;5293;51.464;-2.566;2023-03-11T07:41:28;5.13;;;3.00;;
10491;SDS011;5293;51.464;-2.566;2023-03-11T07:43:57;5.53;;;3.00;;
10491;SDS011;5293;51.464;-2.566;2023-03-11T07:46:24;8.57;;;3.30;;
10491;SDS011;5293;51.464;-2.566;2023-03-11T07:48:51;7.33;;;3.30;;
10491;SDS011;5293;51.464;-2.566;2023-03-11T07:51:27;4.87;;;2.70;;
10491;SDS011;5293;51.464;-2.566;2023-03-11T07:53:54;7.23;;;3.97;;
10491;SDS011;5293;51.464;-2.566;2023-03-11T07:56:21;6.23;;;3.27;;
10491;SDS011;5293;51.464;-2.566;2023-03-11T07:58:48;5.73;;;2.67;;
10491;SDS011;5293;51.464;-2.566;2023-03-11T08:01:16;3.53;;;2.90;;
10491;SDS011;5293;51.464;-2.566;2023-03-11T08:03:44;6.03;;;2.47;;
10491;SDS011;5293;51.464;-2.566;2023-03-11T08:06:15;5.17;;;2.90;;
10491;SDS011;5293;51.464;-2.566;2023-03-11T08:08:43;3.77;;;2.70;;
10491;SDS011;5293;51.464;-2.566;2023-03-11T08:11:09;5.37;;;2.90;;
10491;SDS011;5293;51.464;-2.566;2023-03-11T08:13:37;5.23;;;2.70;;
10491;SDS011;5293;51.464;-2.566;2023-03-11T08:16:04;5.23;;;2.60;;
10491;SDS011;5293;51.464;-2.566;2023-03-11T08:18:31;10.83;;;3.03;;
10491;SDS011;5293;51.464;-2.566;2023-03-11T08:20:57;4.70;;;2.60;;
10491;SDS011;5293;51.464;-2.566;2023-03-11T08:23:23;7.30;;;3.10;;
10491;SDS011;5293;51.464;-2.566;2023-03-11T08:25:49;5.70;;;3.10;;
10491;SDS011;5293;51.464;-2.566;2023-03-11T08:28:15;6.67;;;2.93;;
10491;SDS011;5293;51.464;-2.566;2023-03-11T08:30:40;10.07;;;3.23;;
10491;SDS011;5293;51.464;-2.566;2023-03-11T08:33:06;5.63;;;2.80;;
10491;SDS011;5293;51.464;-2.566;2023-03-11T08:35:32;7.77;;;2.87;;
10491;SDS011;5293;51.464;-2.566;2023-03-11T08:37:58;8.00;;;3.20;;
10491;SDS011;5293;51.464;-2.566;2023-03-11T08:40:23;5.03;;;3.00;;
10491;SDS011;5293;51.464;-2.566;2023-03-11T08:42:49;4.30;;;2.83;;
10491;SDS011;5293;51.464;-2.566;2023-03-11T08:45:15;8.70;;;3.47;;
10491;SDS011;5293;51.464;-2.566;2023-03-11T08:47:41;6.00;;;3.10;;
10491;SDS011;5293;51.464;-2.566;2023-03-11T08:50:16;7.17;;;3.03;;
10491;SDS011;5293;51.464;-2.566;2023-03-11T08:52:43;5.27;;;3.40;;
10491;SDS011;5293;51.464;-2.566;2023-03-11T08:55:13;7.17;;;3.40;;
10491;SDS011;5293;51.464;-2.566;2023-03-11T08:57:41;6.13;;;3.30;;
10491;SDS011;5293;51.464;-2.566;2023-03-11T09:00:07;7.63;;;3.33;;
10491;SDS011;5293;51.464;-2.566;2023-03-11T09:02:35;5.17;;;3.17;;
10491;SDS011;5293;51.464;-2.566;2023-03-11T09:05:00;6.33;;;3.57;;
10491;SDS011;5293;51.464;-2.566;2023-03-11T09:07:26;7.60;;;3.53;;
10491;SDS011;5293;51.464;-2.566;2023-03-11T09:09:52;8.20;;;3.83;;
10491;SDS011;5293;51.464;-2.566;2023-03-11T09:12:18;10.60;;;3.73;;
10491;SDS011;5293;51.464;-2.566;2023-03-11T09:14:44;6.33;;;3.67;;
10491;SDS011;5293;51.464;-2.566;2023-03-11T09:17:10;8.20;;;3.73;;
10491;SDS011;5293;51.464;-2.566;2023-03-11T09:19:36;7.47;;;3.53;;
10491;SDS011;5293;51.464;-2.566;2023-03-11T09:22:02;5.37;;;3.30;;
10491;SDS011;5293;51.464;-2.566;2023-03-11T09:24:28;5.30;;;3.43;;
10491;SDS011;5293;51.464;-2.566;2023-03-11T09:26:57;6.57;;;3.53;;
10491;SDS011;5293;51.464;-2.566;2023-03-11T09:29:23;10.90;;;3.73;;
10491;SDS011;5293;51.464;-2.566;2023-03-11T09:31:48;11.80;;;3.83;;
10491;SDS011;5293;51.464;-2.566;2023-03-11T09:34:14;6.00;;;3.30;;
10491;SDS011;5293;51.464;-2.566;2023-03-11T09:36:40;10.93;;;4.00;;
10491;SDS011;5293;51.464;-2.566;2023-03-11T09:39:06;12.13;;;3.90;;
10491;SDS011;5293;51.464;-2.566;2023-03-11T09:41:35;6.67;;;3.70;;
10491;SDS011;5293;51.464;-2.566;2023-03-11T09:53:18;8.40;;;3.50;;
10491;SDS011;5293;51.464;-2.566;2023-03-11T09:58:21;8.13;;;3.67;;
10491;SDS011;5293;51.464;-2.566;2023-03-11T10:00:50;5.10;;;3.20;;
10491;SDS011;5293;51.464;-2.566;2023-03-11T10:03:20;10.73;;;4.23;;
10491;SDS011;5293;51.464;-2.566;2023-03-11T10:08:47;8.17;;;3.50;;
10491;SDS011;5293;51.464;-2.566;2023-03-11T10:22:20;9.53;;;3.30;;
10491;SDS011;5293;51.464;-2.566;2023-03-11T10:25:08;14.97;;;3.90;;
10491;SDS011;5293;51.464;-2.566;2023-03-11T10:32:57;7.83;;;3.30;;
10491;SDS011;5293;51.464;-2.566;2023-03-11T10:35:40;4.93;;;3.33;;
10491;SDS011;5293;51.464;-2.566;2023-03-11T10:40:46;9.50;;;3.30;;
10491;SDS011;5293;51.464;-2.566;2023-03-11T10:43:18;25.53;;;4.67;;
10491;SDS011;5293;51.464;-2.566;2023-03-11T10:45:50;15.20;;;4.20;;
10491;SDS011;5293;51.464;-2.566;2023-03-11T10:48:17;15.43;;;4.17;;
10491;SDS011;5293;51.464;-2.566;2023-03-11T10:50:55;16.77;;;4.00;;
10491;SDS011;5293;51.464;-2.566;2023-03-11T10:53:26;4.73;;;3.23;;
10491;SDS011;5293;51.464;-2.566;2023-03-11T10:55:54;5.27;;;3.10;;
10491;SDS011;5293;51.464;-2.566;2023-03-11T10:58:23;4.00;;;2.73;;
10491;SDS011;5293;51.464;-2.566;2023-03-11T11:01:04;5.97;;;2.80;;
10491;SDS011;5293;51.464;-2.566;2023-03-11T11:03:42;4.30;;;2.70;;
10491;SDS011;5293;51.464;-2.566;2023-03-11T11:09:17;7.57;;;2.40;;
10491;SDS011;5293;51.464;-2.566;2023-03-11T11:12:31;4.83;;;2.47;;
10491;SDS011;5293;51.464;-2.566;2023-03-11T11:14:44;7.33;;;2.90;;
10491;SDS011;5293;51.464;-2.566;2023-03-11T11:17:19;5.60;;;2.63;;
10491;SDS011;5293;51.464;-2.566;2023-03-11T11:19:49;3.60;;;2.97;;
10491;SDS011;5293;51.464;-2.566;2023-03-11T11:22:17;2.93;;;2.10;;
10491;SDS011;5293;51.464;-2.566;2023-03-11T11:24:45;3.23;;;2.40;;
10491;SDS011;5293;51.464;-2.566;2023-03-11T11:27:20;6.90;;;3.30;;
10491;SDS011;5293;51.464;-2.566;2023-03-11T11:29:46;3.57;;;2.37;;
10491;SDS011;5293;51.464;-2.566;2023-03-11T11:32:26;3.77;;;2.57;;
10491;SDS011;5293;51.464;-2.566;2023-03-11T11:34:57;4.53;;;2.50;;
10491;SDS011;5293;51.464;-2.566;2023-03-11T11:37:24;3.23;;;2.20;;
10491;SDS011;5293;51.464;-2.566;2023-03-11T11:39:57;4.90;;;1.80;;
10491;SDS011;5293;51.464;-2.566;2023-03-11T11:42:35;1.80;;;1.70;;
10491;SDS011;5293;51.464;-2.566;2023-03-11T11:48:04;4.10;;;2.23;;
10491;SDS011;5293;51.464;-2.566;2023-03-11T11:50:33;4.80;;;1.80;;
10491;SDS011;5293;51.464;-2.566;2023-03-11T11:55:46;3.77;;;2.03;;
10491;SDS011;5293;51.464;-2.566;2023-03-11T11:58:14;4.00;;;2.00;;
10491;SDS011;5293;51.464;-2.566;2023-03-11T12:03:26;4.10;;;2.10;;
10491;SDS011;5293;51.464;-2.566;2023-03-11T12:05:57;1.70;;;1.60;;
10491;SDS011;5293;51.464;-2.566;2023-03-11T12:19:12;4.23;;;2.00;;
10491;SDS011;5293;51.464;-2.566;2023-03-11T12:28:04;2.87;;;1.63;;
10491;SDS011;5293;51.464;-2.566;2023-03-11T12:30:55;2.77;;;1.93;;
10491;SDS011;5293;51.464;-2.566;2023-03-11T12:33:30;4.03;;;1.50;;
10491;SDS011;5293;51.464;-2.566;2023-03-11T12:36:04;2.20;;;1.63;;
10491;SDS011;5293;51.464;-2.566;2023-03-11T12:38:34;6.20;;;1.53;;
10491;SDS011;5293;51.464;-2.566;2023-03-11T12:49:29;3.97;;;1.40;;
10491;SDS011;5293;51.464;-2.566;2023-03-11T13:07:51;1.60;;;1.07;;
10491;SDS011;5293;51.464;-2.566;2023-03-11T13:12:48;2.53;;;1.60;;
10491;SDS011;5293;51.464;-2.566;2023-03-11T13:17:58;2.33;;;1.30;;
10491;SDS011;5293;51.464;-2.566;2023-03-11T13:23:07;3.83;;;1.40;;
10491;SDS011;5293;51.464;-2.566;2023-03-11T13:33:51;3.73;;;1.33;;
10491;SDS011;5293;51.464;-2.566;2023-03-11T13:39:23;1.67;;;1.40;;
10491;SDS011;5293;51.464;-2.566;2023-03-11T13:42:01;3.30;;;1.67;;
10491;SDS011;5293;51.464;-2.566;2023-03-11T13:44:30;1.43;;;1.33;;
10491;SDS011;5293;51.464;-2.566;2023-03-11T13:47:09;5.13;;;1.80;;
10491;SDS011;5293;51.464;-2.566;2023-03-11T13:52:30;2.80;;;1.60;;
10491;SDS011;5293;51.464;-2.566;2023-03-11T13:54:58;3.30;;;1.60;;
10491;SDS011;5293;51.464;-2.566;2023-03-11T13:57:34;3.53;;;1.60;;
10491;SDS011;5293;51.464;-2.566;2023-03-11T14:00:23;2.53;;;1.50;;
10491;SDS011;5293;51.464;-2.566;2023-03-11T14:02:49;1.90;;;1.60;;
10491;SDS011;5293;51.464;-2.566;2023-03-11T14:05:26;3.60;;;1.77;;
10491;SDS011;5293;51.464;-2.566;2023-03-11T14:11:01;4.67;;;1.50;;
10491;SDS011;5293;51.464;-2.566;2023-03-11T14:13:29;5.80;;;1.67;;
10491;SDS011;5293;51.464;-2.566;2023-03-11T14:15:57;5.03;;;1.80;;
10491;SDS011;5293;51.464;-2.566;2023-03-11T14:18:25;1.90;;;1.70;;
10491;SDS011;5293;51.464;-2.566;2023-03-11T14:20:59;4.03;;;1.60;;
10491;SDS011;5293;51.464;-2.566;2023-03-11T14:23:29;4.60;;;1.73;;
10491;SDS011;5293;51.464;-2.566;2023-03-11T14:26:05;10.13;;;2.00;;
10491;SDS011;5293;51.464;-2.566;2023-03-11T14:28:33;3.20;;;1.90;;
10491;SDS011;5293;51.464;-2.566;2023-03-11T14:31:02;2.20;;;1.97;;
10491;SDS011;5293;51.464;-2.566;2023-03-11T14:33:28;5.10;;;2.10;;
10491;SDS011;5293;51.464;-2.566;2023-03-11T14:36:11;4.33;;;3.10;;
10491;SDS011;5293;51.464;-2.566;2023-03-11T14:38:41;4.47;;;2.27;;
10491;SDS011;5293;51.464;-2.566;2023-03-11T14:41:09;3.07;;;1.73;;
10491;SDS011;5293;51.464;-2.566;2023-03-11T14:43:40;2.77;;;2.00;;
10491;SDS011;5293;51.464;-2.566;2023-03-11T14:46:10;3.07;;;2.00;;
10491;SDS011;5293;51.464;-2.566;2023-03-11T14:48:43;6.17;;;2.37;;
10491;SDS011;5293;51.464;-2.566;2023-03-11T14:51:13;2.37;;;2.17;;
10491;SDS011;5293;51.464;-2.566;2023-03-11T14:53:52;3.50;;;2.20;;
10491;SDS011;5293;51.464;-2.566;2023-03-11T14:56:33;5.63;;;2.20;;
10491;SDS011;5293;51.464;-2.566;2023-03-11T15:01:46;5.43;;;2.30;;
10491;SDS011;5293;51.464;-2.566;2023-03-11T15:04:20;4.10;;;2.37;;
10491;SDS011;5293;51.464;-2.566;2023-03-11T15:06:56;9.00;;;2.70;;
10491;SDS011;5293;51.464;-2.566;2023-03-11T15:09:23;6.43;;;2.73;;
10491;SDS011;5293;51.464;-2.566;2023-03-11T15:11:54;3.90;;;2.60;;
10491;SDS011;5293;51.464;-2.566;2023-03-11T15:19:51;8.00;;;3.70;;
10491;SDS011;5293;51.464;-2.566;2023-03-11T15:22:28;21.23;;;4.03;;
10491;SDS011;5293;51.464;-2.566;2023-03-11T15:25:13;4.93;;;3.00;;
10491;SDS011;5293;51.464;-2.566;2023-03-11T15:27:41;5.27;;;3.20;;
10491;SDS011;5293;51.464;-2.566;2023-03-11T15:30:18;8.67;;;3.40;;
10491;SDS011;5293;51.464;-2.566;2023-03-11T15:32:51;7.23;;;3.20;;
10491;SDS011;5293;51.464;-2.566;2023-03-11T15:37:43;6.07;;;3.87;;
10491;SDS011;5293;51.464;-2.566;2023-03-11T15:40:23;6.60;;;3.70;;
10491;SDS011;5293;51.464;-2.566;2023-03-11T15:43:11;6.17;;;3.90;;
10491;SDS011;5293;51.464;-2.566;2023-03-11T15:45:47;5.33;;;3.27;;
10491;SDS011;5293;51.464;-2.566;2023-03-11T15:48:14;5.73;;;4.00;;
10491;SDS011;5293;51.464;-2.566;2023-03-11T15:53:15;6.33;;;4.37;;
10491;SDS011;5293;51.464;-2.566;2023-03-11T15:55:41;6.00;;;4.43;;
10491;SDS011;5293;51.464;-2.566;2023-03-11T15:58:07;9.87;;;3.90;;
10491;SDS011;5293;51.464;-2.566;2023-03-11T16:00:35;7.80;;;3.90;;
10491;SDS011;5293;51.464;-2.566;2023-03-11T16:03:01;15.17;;;4.50;;
10491;SDS011;5293;51.464;-2.566;2023-03-11T16:05:28;7.40;;;3.83;;
10491;SDS011;5293;51.464;-2.566;2023-03-11T16:07:54;4.93;;;4.23;;
10491;SDS011;5293;51.464;-2.566;2023-03-11T16:10:20;8.07;;;4.40;;
10491;SDS011;5293;51.464;-2.566;2023-03-11T16:12:48;10.40;;;4.70;;
10491;SDS011;5293;51.464;-2.566;2023-03-11T16:15:18;8.00;;;5.70;;
10491;SDS011;5293;51.464;-2.566;2023-03-11T16:17:56;9.33;;;6.07;;
10491;SDS011;5293;51.464;-2.566;2023-03-11T16:20:24;10.67;;;5.87;;
10491;SDS011;5293;51.464;-2.566;2023-03-11T16:22:52;11.83;;;5.53;;
10491;SDS011;5293;51.464;-2.566;2023-03-11T16:25:30;10.10;;;5.93;;
10491;SDS011;5293;51.464;-2.566;2023-03-11T16:27:58;7.37;;;5.50;;
10491;SDS011;5293;51.464;-2.566;2023-03-11T16:30:25;7.57;;;5.87;;
10491;SDS011;5293;51.464;-2.566;2023-03-11T16:32:52;11.97;;;6.53;;
10491;SDS011;5293;51.464;-2.566;2023-03-11T16:35:18;10.87;;;6.63;;
10491;SDS011;5293;51.464;-2.566;2023-03-11T16:37:45;10.77;;;7.07;;
10491;SDS011;5293;51.464;-2.566;2023-03-11T16:40:12;11.87;;;7.10;;
10491;SDS011;5293;51.464;-2.566;2023-03-11T16:42:39;9.30;;;7.37;;
10491;SDS011;5293;51.464;-2.566;2023-03-11T16:45:06;10.83;;;7.03;;
10491;SDS011;5293;51.464;-2.566;2023-03-11T16:47:32;14.50;;;10.23;;
10491;SDS011;5293;51.464;-2.566;2023-03-11T16:49:57;14.90;;;8.73;;
10491;SDS011;5293;51.464;-2.566;2023-03-11T16:52:23;10.20;;;7.57;;
10491;SDS011;5293;51.464;-2.566;2023-03-11T16:54:49;12.03;;;7.83;;